Time;durP1;ratioP1;P1;durP2;ratioP2;P2;SDS_P1;SDS_P2;PMS_P1;PMS_P2;Temp;Humidity;BMP_temperature;BMP_pressure;BME280_temperature;BME280_humidity;BME280_pressure;Samples;Min_cycle;Max_cycle;Signal;HPM_P1;HPM_P2
2022/07/21 00:01:20;;;;;;;14.90;13.60;;;20.70;99.90;;;;;;5049890;28;20468;-34
2022/07/21 00:03:46;;;;;;;14.43;13.13;;;20.80;99.90;;;;;;5050732;28;20224;-33
2022/07/21 00:06:12;;;;;;;15.50;14.00;;;20.80;99.90;;;;;;5051043;28;20860;-34
2022/07/21 00:08:37;;;;;;;13.80;12.27;;;20.80;99.90;;;;;;5050381;28;20231;-33
2022/07/21 00:11:03;;;;;;;12.93;11.37;;;20.70;99.90;;;;;;5051062;28;20239;-34
2022/07/21 00:13:29;;;;;;;10.73;9.80;;;20.60;99.90;;;;;;5058823;28;20197;-34
2022/07/21 00:15:55;;;;;;;10.03;9.13;;;20.50;99.90;;;;;;5039596;28;20244;-33
2022/07/21 00:18:21;;;;;;;9.00;8.20;;;20.50;99.90;;;;;;5028694;28;20190;-33
2022/07/21 00:20:47;;;;;;;7.80;7.10;;;20.40;99.90;;;;;;5030857;28;20759;-33
2022/07/21 00:23:12;;;;;;;7.30;6.70;;;20.40;99.90;;;;;;5044303;28;20554;-34
2022/07/21 00:25:38;;;;;;;10.03;8.43;;;20.40;99.90;;;;;;5050737;28;20455;-33
2022/07/21 00:28:05;;;;;;;9.63;7.97;;;20.40;99.90;;;;;;5050177;28;20213;-33
2022/07/21 00:30:31;;;;;;;10.50;8.67;;;20.30;99.90;;;;;;5050426;28;20628;-34
2022/07/21 00:32:56;;;;;;;9.00;8.17;;;20.30;99.90;;;;;;5050489;28;20516;-33
2022/07/21 00:35:22;;;;;;;10.40;9.50;;;20.30;99.90;;;;;;5050580;28;20523;-33
2022/07/21 00:37:48;;;;;;;9.13;8.23;;;20.40;99.90;;;;;;5050108;28;20633;-33
2022/07/21 00:40:15;;;;;;;9.87;8.97;;;20.40;99.90;;;;;;5050478;28;20234;-34
2022/07/21 00:42:42;;;;;;;10.47;9.37;;;20.20;99.90;;;;;;5050338;28;21141;-33
2022/07/21 00:45:09;;;;;;;10.33;9.43;;;20.20;99.90;;;;;;5050140;28;20471;-33
2022/07/21 00:47:36;;;;;;;9.60;8.63;;;20.20;99.90;;;;;;5049734;28;20763;-33
2022/07/21 00:50:09;;;;;;;9.47;8.60;;;20.20;99.90;;;;;;5050338;28;20416;-33
2022/07/21 00:52:34;;;;;;;10.00;9.00;;;20.30;99.90;;;;;;5050303;28;21010;-33
2022/07/21 00:55:01;;;;;;;11.30;9.97;;;20.30;99.90;;;;;;5049932;28;20463;-34
2022/07/21 00:57:28;;;;;;;10.80;9.80;;;20.20;99.90;;;;;;5049168;28;20192;-34
2022/07/21 00:59:54;;;;;;;10.27;9.37;;;20.20;99.90;;;;;;5049848;28;20427;-33
2022/07/21 01:02:20;;;;;;;10.67;9.40;;;20.10;99.90;;;;;;5049962;28;20408;-33
2022/07/21 01:04:45;;;;;;;13.10;9.50;;;20.00;99.90;;;;;;5049985;28;20554;-34
2022/07/21 01:07:11;;;;;;;11.60;10.60;;;19.90;99.90;;;;;;5048421;28;20777;-34
2022/07/21 01:09:37;;;;;;;12.07;9.53;;;19.80;99.90;;;;;;5050141;28;20358;-34
2022/07/21 01:12:04;;;;;;;11.27;10.27;;;19.90;99.90;;;;;;5049790;28;21142;-33
2022/07/21 01:14:30;;;;;;;11.30;10.17;;;19.90;99.90;;;;;;5053015;28;20186;-33
2022/07/21 01:16:55;;;;;;;11.87;10.77;;;20.00;99.90;;;;;;5032911;28;20432;-33
2022/07/21 01:19:21;;;;;;;11.53;10.43;;;20.10;99.90;;;;;;5028610;28;20425;-34
2022/07/21 01:21:48;;;;;;;11.43;10.30;;;20.10;99.90;;;;;;5032871;28;20431;-33
2022/07/21 01:24:15;;;;;;;12.90;11.70;;;20.10;99.90;;;;;;5049909;28;20672;-33
2022/07/21 01:26:45;;;;;;;11.90;10.70;;;20.10;99.90;;;;;;5049265;28;20594;-33
2022/07/21 01:29:12;;;;;;;10.60;9.60;;;20.10;99.90;;;;;;5052924;28;20484;-33
2022/07/21 01:31:40;;;;;;;10.77;9.77;;;20.00;99.90;;;;;;5056480;28;20445;-34
2022/07/21 01:34:07;;;;;;;11.83;10.67;;;20.10;99.90;;;;;;5056540;28;20471;-34
2022/07/21 01:36:32;;;;;;;10.90;9.90;;;20.00;99.90;;;;;;5055823;28;20498;-34
2022/07/21 01:41:43;;;;;;;12.73;10.17;;;20.00;99.90;;;;;;5056323;28;20216;-33
2022/07/21 01:44:11;;;;;;;11.53;10.30;;;20.10;99.90;;;;;;5056177;28;20463;-34
2022/07/21 01:46:39;;;;;;;11.10;10.10;;;20.20;99.90;;;;;;5055787;28;20464;-33
2022/07/21 01:49:06;;;;;;;10.70;9.77;;;20.20;99.90;;;;;;5056123;28;20420;-33
2022/07/21 01:51:32;;;;;;;10.93;9.90;;;20.20;99.90;;;;;;5056200;28;20528;-34
2022/07/21 01:53:58;;;;;;;11.80;10.17;;;20.30;99.90;;;;;;5055927;28;20470;-33
2022/07/21 01:56:25;;;;;;;14.13;10.23;;;20.30;99.90;;;;;;5056299;28;20919;-33
2022/07/21 01:58:55;;;;;;;11.00;10.10;;;20.20;99.90;;;;;;5055601;28;20784;-33
2022/07/21 02:01:22;;;;;;;11.30;10.20;;;20.20;99.90;;;;;;5056237;28;20435;-33
2022/07/21 02:03:49;;;;;;;10.50;9.43;;;20.20;99.90;;;;;;5055951;28;20459;-34
2022/07/21 02:06:15;;;;;;;11.67;10.30;;;20.20;99.90;;;;;;5056170;28;20447;-34
2022/07/21 02:08:44;;;;;;;11.47;10.47;;;20.20;99.90;;;;;;5055235;28;20424;-33
2022/07/21 02:11:11;;;;;;;10.73;9.73;;;20.10;99.90;;;;;;5056375;28;20480;-33
2022/07/21 02:13:37;;;;;;;10.53;9.43;;;20.00;99.90;;;;;;5063004;28;20951;-33
2022/07/21 02:16:03;;;;;;;10.60;9.50;;;20.00;99.90;;;;;;5044808;28;20772;-33
2022/07/21 02:18:29;;;;;;;10.23;8.30;;;20.00;99.90;;;;;;5033945;28;20436;-34
2022/07/21 02:20:55;;;;;;;10.43;8.37;;;20.00;99.90;;;;;;5036106;28;20424;-33
2022/07/21 02:23:23;;;;;;;8.40;7.60;;;20.00;99.90;;;;;;5051625;28;20559;-33
2022/07/21 02:25:48;;;;;;;8.67;7.97;;;19.90;99.90;;;;;;5056070;28;20173;-33
2022/07/21 02:28:14;;;;;;;9.03;8.23;;;19.80;99.90;;;;;;5055283;28;20499;-34
2022/07/21 02:30:41;;;;;;;8.83;7.90;;;19.70;99.90;;;;;;5056041;28;20415;-33
2022/07/21 02:33:06;;;;;;;9.30;8.37;;;19.70;99.90;;;;;;5055883;28;20177;-33
2022/07/21 02:35:32;;;;;;;8.03;7.33;;;19.60;99.90;;;;;;5055683;28;20424;-33
2022/07/21 02:37:59;;;;;;;8.00;7.30;;;19.50;99.90;;;;;;5055258;28;20186;-34
2022/07/21 02:40:25;;;;;;;8.37;7.60;;;19.40;99.90;;;;;;5053437;28;20432;-34
2022/07/21 02:42:51;;;;;;;8.93;8.13;;;19.50;99.90;;;;;;5052615;28;20447;-33
2022/07/21 02:45:16;;;;;;;10.73;8.10;;;19.40;99.90;;;;;;5052626;28;20466;-33
2022/07/21 02:47:58;;;;;;;9.77;8.03;;;19.50;99.90;;;;;;5050668;28;20184;-33
2022/07/21 02:50:27;;;;;;;9.53;8.30;;;19.50;99.90;;;;;;5052305;28;20281;-33
2022/07/21 02:52:57;;;;;;;9.10;8.30;;;19.50;99.90;;;;;;5052546;28;20428;-33
2022/07/21 02:55:25;;;;;;;8.83;8.03;;;19.50;99.90;;;;;;5052363;28;20533;-33
2022/07/21 02:58:03;;;;;;;7.93;7.07;;;19.60;99.90;;;;;;5051860;28;20436;-33
2022/07/21 03:00:28;;;;;;;8.70;7.90;;;19.60;99.90;;;;;;5052265;28;20424;-33
2022/07/21 03:02:54;;;;;;;8.97;8.17;;;19.60;99.90;;;;;;5052256;28;20432;-33
2022/07/21 03:05:20;;;;;;;9.87;8.97;;;19.60;99.90;;;;;;5052160;28;20205;-33
2022/07/21 03:07:45;;;;;;;9.77;8.77;;;19.50;99.90;;;;;;5051769;28;20181;-33
2022/07/21 03:10:11;;;;;;;9.30;8.50;;;19.40;99.90;;;;;;5052239;28;20203;-34
2022/07/21 03:12:37;;;;;;;16.70;9.00;;;19.40;99.90;;;;;;5055301;28;20189;-33
2022/07/21 03:15:03;;;;;;;8.23;7.53;;;19.40;99.90;;;;;;5054645;28;20272;-34
2022/07/21 03:17:29;;;;;;;9.27;8.30;;;19.40;99.90;;;;;;5031441;28;20195;-33
2022/07/21 03:19:54;;;;;;;9.27;8.37;;;19.50;99.90;;;;;;5030564;28;20763;-34
2022/07/21 03:22:20;;;;;;;9.60;8.70;;;19.50;99.90;;;;;;5039851;28;20662;-33
2022/07/21 03:24:46;;;;;;;9.33;8.43;;;19.40;99.90;;;;;;5051905;28;20213;-33
2022/07/21 03:27:11;;;;;;;9.40;8.53;;;19.40;99.90;;;;;;5051277;28;20239;-33
2022/07/21 03:29:37;;;;;;;8.43;7.67;;;19.50;99.90;;;;;;5051994;28;20189;-34
2022/07/21 03:32:03;;;;;;;9.73;8.83;;;19.40;99.90;;;;;;5051547;28;20189;-33
2022/07/21 03:34:29;;;;;;;8.90;8.10;;;19.40;99.90;;;;;;5051801;28;20192;-33
2022/07/21 03:36:54;;;;;;;10.20;9.30;;;19.40;99.90;;;;;;5051065;28;20515;-33
2022/07/21 03:39:20;;;;;;;10.13;9.23;;;19.40;99.90;;;;;;5051676;28;20251;-33
2022/07/21 03:41:46;;;;;;;8.70;7.87;;;19.40;99.90;;;;;;5051628;28;20198;-33
2022/07/21 03:44:11;;;;;;;9.83;8.93;;;19.40;99.90;;;;;;5051466;28;20216;-33
2022/07/21 03:46:37;;;;;;;9.93;8.40;;;19.40;99.90;;;;;;5050661;28;20610;-33
2022/07/21 03:49:03;;;;;;;9.97;8.90;;;19.30;99.90;;;;;;5051336;28;20210;-34
2022/07/21 03:51:28;;;;;;;9.47;8.23;;;19.30;99.90;;;;;;5050956;28;20193;-34
2022/07/21 03:53:54;;;;;;;8.27;7.47;;;19.20;99.90;;;;;;5051549;28;20197;-33
2022/07/21 03:56:20;;;;;;;7.93;7.20;;;19.20;99.90;;;;;;5051329;28;20691;-34
2022/07/21 03:58:45;;;;;;;7.13;6.53;;;19.20;99.90;;;;;;5050732;28;20337;-34
2022/07/21 04:01:11;;;;;;;7.77;7.03;;;19.20;99.90;;;;;;5051133;28;20194;-33
2022/07/21 04:03:36;;;;;;;7.20;6.50;;;19.20;99.90;;;;;;5051215;28;20218;-33
2022/07/21 04:06:02;;;;;;;7.13;6.43;;;19.20;99.90;;;;;;5051121;28;20201;-34
2022/07/21 04:08:28;;;;;;;8.27;7.47;;;19.20;99.90;;;;;;5050388;28;20178;-33
2022/07/21 04:10:54;;;;;;;7.80;7.10;;;19.20;99.90;;;;;;5051181;28;20284;-33
2022/07/21 04:13:19;;;;;;;9.33;8.27;;;19.20;99.90;;;;;;5058952;28;20254;-33
2022/07/21 04:15:45;;;;;;;8.07;7.40;;;19.10;99.90;;;;;;5038655;28;20688;-33
2022/07/21 04:18:11;;;;;;;9.60;8.70;;;19.10;99.90;;;;;;5029008;28;20186;-33
2022/07/21 04:20:36;;;;;;;8.07;7.27;;;19.10;99.90;;;;;;5030914;28;20834;-34
2022/07/21 04:23:04;;;;;;;9.00;8.20;;;19.10;99.90;;;;;;5044241;28;20288;-33
2022/07/21 04:25:30;;;;;;;8.87;8.00;;;19.10;99.90;;;;;;5050909;28;20224;-33
2022/07/21 04:27:57;;;;;;;9.10;8.23;;;19.00;99.90;;;;;;5050142;28;20834;-33
2022/07/21 04:30:23;;;;;;;8.67;7.87;;;19.10;99.90;;;;;;5050735;28;20703;-33
2022/07/21 04:32:49;;;;;;;9.37;8.47;;;19.20;99.90;;;;;;5049270;28;20519;-33
2022/07/21 04:35:15;;;;;;;8.73;7.87;;;19.20;99.90;;;;;;5050761;28;20507;-33
2022/07/21 04:37:41;;;;;;;9.70;8.70;;;19.20;99.90;;;;;;5049874;28;20423;-33
2022/07/21 04:40:10;;;;;;;10.53;9.50;;;19.30;99.90;;;;;;5050622;28;20783;-33
2022/07/21 04:42:36;;;;;;;10.00;9.00;;;19.30;99.90;;;;;;5050364;28;20915;-33
2022/07/21 04:45:03;;;;;;;11.13;10.03;;;19.40;99.90;;;;;;5050255;28;20475;-33
2022/07/21 04:47:29;;;;;;;11.07;9.97;;;19.40;99.90;;;;;;5044310;28;20185;-33
2022/07/21 04:49:54;;;;;;;11.53;10.43;;;19.40;99.90;;;;;;5042134;28;20454;-33
2022/07/21 04:52:20;;;;;;;11.67;10.50;;;19.40;99.90;;;;;;5036280;28;20178;-34
2022/07/21 04:54:46;;;;;;;11.63;10.57;;;19.40;99.90;;;;;;5030496;28;20190;-33
2022/07/21 04:57:12;;;;;;;12.20;11.00;;;19.50;99.90;;;;;;5029648;28;20524;-33
2022/07/21 04:59:38;;;;;;;13.50;12.30;;;19.40;99.90;;;;;;5030292;28;20190;-33
2022/07/21 05:02:06;;;;;;;13.33;11.93;;;19.50;99.90;;;;;;5030221;28;20255;-33
2022/07/21 05:04:32;;;;;;;15.20;13.70;;;19.50;99.90;;;;;;5029606;28;20506;-33
2022/07/21 05:06:58;;;;;;;16.73;14.07;;;19.50;99.90;;;;;;5029523;28;20936;-33
2022/07/21 05:09:24;;;;;;;14.70;13.30;;;19.40;99.90;;;;;;5030237;28;20551;-33
2022/07/21 05:11:49;;;;;;;15.07;13.53;;;19.50;99.90;;;;;;5030028;28;20265;-33
2022/07/21 05:14:15;;;;;;;15.27;13.77;;;19.60;99.90;;;;;;5051521;28;20193;-33
2022/07/21 05:16:41;;;;;;;16.40;14.77;;;19.50;99.90;;;;;;5035470;28;20665;-33
2022/07/21 05:19:07;;;;;;;16.57;14.87;;;19.40;99.90;;;;;;5028872;28;20220;-33
2022/07/21 05:21:33;;;;;;;15.93;14.33;;;19.40;99.90;;;;;;5030886;28;20429;-33
2022/07/21 05:23:58;;;;;;;16.37;14.67;;;19.40;99.90;;;;;;5048587;28;20209;-33
2022/07/21 05:26:24;;;;;;;16.27;14.67;;;19.40;99.90;;;;;;5049677;28;20188;-33
2022/07/21 05:28:50;;;;;;;16.30;14.70;;;19.40;99.90;;;;;;5049358;28;20603;-33
2022/07/21 05:31:15;;;;;;;17.13;15.20;;;19.50;99.90;;;;;;5048296;28;20641;-33
2022/07/21 05:33:41;;;;;;;18.70;15.00;;;19.50;99.90;;;;;;5030077;28;20290;-33
2022/07/21 05:36:07;;;;;;;16.47;14.77;;;19.50;99.90;;;;;;5029832;28;20198;-33
2022/07/21 05:38:33;;;;;;;18.17;15.97;;;19.50;99.90;;;;;;5029400;28;20201;-33
2022/07/21 05:41:05;;;;;;;16.17;14.57;;;19.60;99.90;;;;;;5029675;28;20747;-34
2022/07/21 05:43:31;;;;;;;15.17;13.70;;;19.60;99.90;;;;;;5028642;28;20468;-33
2022/07/21 05:45:57;;;;;;;16.10;14.50;;;19.60;99.90;;;;;;5029581;28;20433;-33
2022/07/21 05:48:23;;;;;;;16.67;14.77;;;19.70;99.90;;;;;;5029450;28;20430;-33
2022/07/21 05:50:49;;;;;;;15.83;14.17;;;19.80;99.90;;;;;;5035238;28;20435;-33
2022/07/21 05:53:15;;;;;;;16.77;15.10;;;19.80;99.90;;;;;;5041949;28;20669;-34
2022/07/21 05:55:40;;;;;;;19.77;16.00;;;19.80;99.90;;;;;;5029292;28;20557;-33
2022/07/21 05:58:06;;;;;;;16.47;14.87;;;19.80;99.90;;;;;;5029131;28;20193;-33
2022/07/21 06:00:32;;;;;;;15.07;13.73;;;19.80;99.90;;;;;;5028851;28;20186;-33
2022/07/21 06:02:58;;;;;;;16.60;14.90;;;19.90;99.90;;;;;;5029443;28;20649;-34
2022/07/21 06:05:23;;;;;;;16.20;14.80;;;19.80;99.90;;;;;;5030917;28;20260;-33
2022/07/21 06:07:49;;;;;;;15.40;13.73;;;19.80;99.90;;;;;;5039116;28;20191;-33
2022/07/21 06:10:15;;;;;;;17.47;15.77;;;19.90;99.90;;;;;;5039561;28;20202;-33
2022/07/21 06:12:41;;;;;;;16.50;14.80;;;19.90;99.90;;;;;;5043382;28;20196;-33
2022/07/21 06:15:08;;;;;;;16.33;14.83;;;20.00;99.90;;;;;;5045556;28;20432;-33
2022/07/21 06:17:44;;;;;;;15.93;14.43;;;19.90;99.90;;;;;;5032548;28;20494;-33
2022/07/21 06:20:12;;;;;;;15.83;14.37;;;20.00;99.90;;;;;;5032314;28;20424;-33
2022/07/21 06:22:38;;;;;;;15.63;14.23;;;20.00;99.90;;;;;;5043174;28;20428;-33
2022/07/21 06:25:05;;;;;;;16.20;14.70;;;20.10;99.90;;;;;;5052764;28;20494;-33
2022/07/21 06:27:34;;;;;;;15.70;14.30;;;20.10;99.90;;;;;;5052439;28;20455;-33
2022/07/21 06:29:59;;;;;;;15.00;13.63;;;20.20;99.90;;;;;;5053105;28;20428;-33
2022/07/21 06:32:26;;;;;;;14.30;13.00;;;20.30;99.90;;;;;;5052850;28;20431;-33
2022/07/21 06:34:51;;;;;;;16.87;15.10;;;20.20;99.90;;;;;;5052987;28;20205;-33
2022/07/21 06:37:17;;;;;;;17.00;15.50;;;20.30;99.90;;;;;;5040400;28;20437;-33
2022/07/21 06:39:43;;;;;;;16.50;14.97;;;20.30;99.90;;;;;;5040457;28;20205;-33
2022/07/21 06:42:09;;;;;;;17.87;16.20;;;20.30;99.90;;;;;;5044885;28;20194;-33
2022/07/21 06:44:35;;;;;;;15.40;13.90;;;20.30;99.90;;;;;;5045285;28;20274;-33
2022/07/21 06:47:04;;;;;;;17.03;15.33;;;20.20;99.90;;;;;;5041690;28;20427;-33
2022/07/21 06:49:31;;;;;;;17.63;16.03;;;20.20;99.90;;;;;;5042799;28;20213;-33
2022/07/21 06:51:57;;;;;;;16.73;15.23;;;20.20;99.90;;;;;;5045181;28;20425;-33
2022/07/21 06:54:23;;;;;;;19.97;17.67;;;20.10;99.90;;;;;;5045441;28;20528;-33
2022/07/21 06:56:49;;;;;;;17.47;15.80;;;20.10;99.90;;;;;;5032008;28;20293;-33
2022/07/21 06:59:15;;;;;;;16.80;15.10;;;20.10;99.90;;;;;;5032843;28;20193;-33
2022/07/21 07:01:40;;;;;;;18.00;16.27;;;20.10;99.90;;;;;;5042204;28;20508;-33
2022/07/21 07:04:06;;;;;;;16.77;15.07;;;20.20;99.90;;;;;;5042670;28;20236;-33
2022/07/21 07:06:32;;;;;;;17.33;15.83;;;20.30;99.90;;;;;;5040938;28;20237;-33
2022/07/21 07:08:57;;;;;;;17.20;15.43;;;20.50;99.90;;;;;;5032133;28;20426;-33
2022/07/21 07:11:23;;;;;;;16.47;14.97;;;20.60;99.90;;;;;;5032353;28;20197;-33
2022/07/21 07:13:49;;;;;;;15.47;13.97;;;20.70;99.90;;;;;;5050106;28;20190;-33
2022/07/21 07:16:15;;;;;;;15.90;14.50;;;20.80;99.90;;;;;;5040709;28;20241;-33
2022/07/21 07:18:40;;;;;;;14.20;12.97;;;20.80;99.90;;;;;;5030502;28;20704;-33
2022/07/21 07:21:06;;;;;;;14.87;13.50;;;20.80;99.90;;;;;;5034034;28;20198;-33
2022/07/21 07:23:32;;;;;;;12.90;11.80;;;21.00;99.90;;;;;;5049297;28;20274;-33
2022/07/21 07:25:57;;;;;;;11.90;10.90;;;21.20;99.90;;;;;;5051787;28;20304;-33
2022/07/21 07:28:23;;;;;;;14.10;12.83;;;21.30;99.90;;;;;;5050615;28;20197;-34
2022/07/21 07:30:49;;;;;;;12.30;11.10;;;21.30;99.90;;;;;;5051958;28;20695;-33
2022/07/21 07:33:15;;;;;;;12.97;11.67;;;21.30;99.90;;;;;;5037868;28;20255;-33
2022/07/21 07:35:40;;;;;;;12.00;10.90;;;21.40;99.90;;;;;;5037709;28;20197;-33
2022/07/21 07:38:06;;;;;;;11.10;10.10;;;21.50;99.90;;;;;;5033998;28;20432;-33
2022/07/21 07:40:32;;;;;;;12.33;11.10;;;21.60;99.90;;;;;;5031686;28;21012;-33
2022/07/21 07:42:58;;;;;;;11.60;10.60;;;21.60;99.90;;;;;;5031750;28;20186;-33
2022/07/21 07:45:24;;;;;;;11.27;9.93;;;21.60;99.90;;;;;;5031630;28;20437;-33
2022/07/21 07:47:50;;;;;;;11.47;10.23;;;21.50;99.90;;;;;;5037578;28;20460;-33
2022/07/21 07:50:16;;;;;;;11.33;10.33;;;21.40;99.90;;;;;;5044439;28;20422;-33
2022/07/21 07:52:44;;;;;;;9.73;8.83;;;21.30;99.90;;;;;;5036306;28;20685;-33
2022/07/21 07:55:12;;;;;;;11.17;9.03;;;21.40;99.90;;;;;;5051372;28;20203;-34
2022/07/21 07:57:39;;;;;;;10.13;8.13;;;21.60;99.90;;;;;;5050663;28;20442;-33
2022/07/21 08:00:08;;;;;;;9.57;8.80;;;21.80;99.90;;;;;;5051167;28;20458;-34
2022/07/21 08:02:35;;;;;;;10.40;8.10;;;21.80;99.90;;;;;;5035622;28;20494;-33
2022/07/21 08:05:00;;;;;;;9.10;8.20;;;22.00;99.90;;;;;;5050837;28;20475;-33
2022/07/21 08:07:26;;;;;;;9.77;8.20;;;22.10;99.90;;;;;;5050690;28;20790;-34
2022/07/21 08:09:52;;;;;;;9.00;8.20;;;22.20;99.90;;;;;;5051262;28;20235;-34
2022/07/21 08:12:18;;;;;;;9.90;8.37;;;22.10;99.90;;;;;;5051203;28;20178;-34
2022/07/21 08:14:44;;;;;;;8.53;7.80;;;22.00;99.90;;;;;;5055512;28;20626;-33
2022/07/21 08:17:10;;;;;;;10.67;9.70;;;21.90;99.90;;;;;;5032424;28;20433;-34
2022/07/21 08:19:36;;;;;;;12.73;8.77;;;21.80;99.90;;;;;;5030159;28;20194;-34
2022/07/21 08:22:02;;;;;;;9.83;8.83;;;21.90;99.90;;;;;;5035820;28;20189;-33
2022/07/21 08:24:27;;;;;;;10.67;8.40;;;22.00;99.90;;;;;;5050773;28;20260;-33
2022/07/21 08:26:54;;;;;;;9.50;8.57;;;22.00;99.90;;;;;;5049944;28;20455;-33
2022/07/21 08:29:19;;;;;;;10.33;8.90;;;22.10;99.90;;;;;;5050845;28;20247;-34
2022/07/21 08:31:45;;;;;;;9.30;8.50;;;22.30;99.90;;;;;;5050437;28;20432;-34
2022/07/21 08:34:11;;;;;;;9.53;8.73;;;22.40;99.90;;;;;;5046980;28;20189;-33
2022/07/21 08:36:37;;;;;;;10.10;9.13;;;22.40;99.90;;;;;;5038783;28;20198;-34
2022/07/21 08:39:03;;;;;;;10.63;9.73;;;22.40;99.90;;;;;;5039767;28;20222;-33
2022/07/21 08:41:31;;;;;;;10.27;9.27;;;22.40;99.90;;;;;;5040199;28;20432;-34
2022/07/21 08:43:57;;;;;;;10.90;9.90;;;22.30;99.90;;;;;;5038588;28;20823;-34
2022/07/21 08:46:23;;;;;;;11.10;9.93;;;22.30;99.90;;;;;;5030251;28;20432;-33
2022/07/21 08:48:50;;;;;;;11.97;9.70;;;22.10;99.90;;;;;;5030193;28;20190;-34
2022/07/21 08:51:16;;;;;;;9.00;8.20;;;22.10;99.90;;;;;;5030424;28;20421;-33
2022/07/21 08:53:46;;;;;;;10.20;9.30;;;22.10;99.90;;;;;;5030608;28;20483;-33
2022/07/21 08:56:12;;;;;;;10.80;9.70;;;22.00;99.90;;;;;;5030350;28;20433;-33
2022/07/21 08:58:37;;;;;;;9.30;8.60;;;21.90;99.90;;;;;;5037477;28;20421;-33
2022/07/21 09:01:05;;;;;;;10.90;9.80;;;21.90;99.90;;;;;;5030612;28;20490;-34
2022/07/21 09:03:32;;;;;;;10.83;9.73;;;21.90;99.90;;;;;;5043026;28;20221;-33
2022/07/21 09:06:06;;;;;;;11.13;10.23;;;22.00;99.90;;;;;;5040079;28;20511;-34
2022/07/21 09:08:45;;;;;;;10.10;9.30;;;22.00;99.90;;;;;;5044456;28;20436;-34
2022/07/21 09:11:25;;;;;;;10.43;9.50;;;22.00;99.90;;;;;;5036778;28;20442;-33
2022/07/21 09:14:10;;;;;;;10.23;9.43;;;22.10;99.90;;;;;;5046913;28;20433;-34
2022/07/21 09:16:44;;;;;;;9.83;9.03;;;22.10;99.90;;;;;;5029590;28;20993;-33
2022/07/21 09:19:19;;;;;;;8.30;7.70;;;22.10;99.90;;;;;;5029087;28;20931;-34
2022/07/21 09:21:45;;;;;;;9.00;8.20;;;22.10;99.90;;;;;;5032552;28;20508;-34
2022/07/21 09:24:18;;;;;;;9.20;8.30;;;22.20;99.90;;;;;;5049629;28;20482;-33
2022/07/21 09:27:10;;;;;;;8.60;7.90;;;22.20;99.90;;;;;;5040226;28;20471;-33
2022/07/21 09:29:43;;;;;;;8.37;7.50;;;22.10;99.90;;;;;;5029648;28;20479;-34
2022/07/21 09:32:22;;;;;;;9.07;8.27;;;22.10;99.90;;;;;;5030018;28;20425;-34
2022/07/21 09:34:51;;;;;;;8.87;8.07;;;22.20;99.90;;;;;;5043546;28;20428;-34
2022/07/21 09:37:17;;;;;;;8.53;7.70;;;22.30;99.90;;;;;;5049028;28;20428;-33
2022/07/21 09:39:52;;;;;;;8.30;7.50;;;22.30;99.90;;;;;;5049636;28;20424;-34
2022/07/21 09:42:22;;;;;;;8.97;8.10;;;22.40;99.90;;;;;;5049811;28;20431;-34
2022/07/21 09:44:52;;;;;;;10.67;7.50;;;22.40;99.90;;;;;;5049328;28;20460;-34
2022/07/21 09:47:20;;;;;;;8.20;7.20;;;22.30;99.90;;;;;;5048944;28;20482;-34
2022/07/21 09:49:46;;;;;;;8.17;7.23;;;22.40;99.90;;;;;;5050361;28;20519;-34
2022/07/21 09:52:24;;;;;;;7.60;6.90;;;22.40;99.90;;;;;;5053793;28;20435;-34
2022/07/21 09:54:52;;;;;;;7.20;6.60;;;22.40;99.90;;;;;;5053641;28;20427;-33
2022/07/21 09:57:18;;;;;;;7.80;6.80;;;22.30;99.90;;;;;;5052692;28;20432;-33
2022/07/21 09:59:45;;;;;;;6.90;6.30;;;22.20;99.90;;;;;;5053531;28;20424;-34
2022/07/21 10:02:25;;;;;;;9.90;6.90;;;22.20;99.90;;;;;;5053503;28;20511;-33
2022/07/21 10:04:58;;;;;;;8.87;7.40;;;22.20;99.90;;;;;;5053269;28;20471;-34
2022/07/21 10:07:25;;;;;;;7.53;6.50;;;22.30;99.90;;;;;;5052935;28;20431;-34
2022/07/21 10:09:52;;;;;;;8.50;7.80;;;22.40;99.90;;;;;;5053244;28;21156;-34
2022/07/21 10:12:19;;;;;;;7.10;6.50;;;22.40;99.90;;;;;;5052491;28;20459;-34
2022/07/21 10:14:46;;;;;;;7.67;7.00;;;22.40;99.90;;;;;;5057467;28;20428;-34
2022/07/21 10:17:16;;;;;;;7.67;7.07;;;22.40;99.90;;;;;;5034484;28;20471;-34
2022/07/21 10:20:08;;;;;;;8.40;7.60;;;22.50;99.90;;;;;;5032509;28;20563;-33
2022/07/21 10:23:01;;;;;;;7.37;6.73;;;22.50;99.90;;;;;;5033480;28;20836;-33
2022/07/21 10:25:27;;;;;;;8.73;8.00;;;22.50;99.90;;;;;;5035396;28;20506;-34
2022/07/21 10:28:11;;;;;;;7.47;6.73;;;22.60;99.90;;;;;;5032793;28;20421;-33
2022/07/21 10:30:42;;;;;;;8.80;7.57;;;22.60;99.90;;;;;;5041529;28;20416;-34
2022/07/21 10:33:08;;;;;;;8.27;7.57;;;22.60;99.90;;;;;;5053064;28;20461;-33
2022/07/21 10:35:35;;;;;;;8.23;7.30;;;22.60;99.90;;;;;;5052972;28;20452;-33
2022/07/21 10:38:02;;;;;;;7.30;6.70;;;22.60;99.90;;;;;;5052420;28;20803;-34
2022/07/21 10:40:28;;;;;;;8.17;7.47;;;22.60;99.90;;;;;;5052876;28;20789;-34
2022/07/21 10:42:59;;;;;;;8.27;7.50;;;22.60;99.90;;;;;;5052901;28;20423;-34
2022/07/21 10:45:33;;;;;;;9.33;7.63;;;22.50;99.90;;;;;;5052650;28;20190;-33
2022/07/21 10:48:00;;;;;;;9.70;8.80;;;22.50;99.90;;;;;;5052222;28;20420;-33
2022/07/21 10:50:35;;;;;;;9.93;7.97;;;22.50;99.90;;;;;;5052658;28;20412;-33
2022/07/21 10:53:04;;;;;;;10.27;8.37;;;22.40;99.90;;;;;;5052588;28;20451;-34
2022/07/21 10:55:31;;;;;;;8.47;7.50;;;22.40;99.90;;;;;;5052255;28;20439;-33
2022/07/21 10:58:24;;;;;;;9.30;8.30;;;22.30;99.90;;;;;;5051914;28;20478;-34
2022/07/21 11:00:51;;;;;;;7.40;6.80;;;22.20;99.90;;;;;;5052143;28;20435;-34
2022/07/21 11:03:28;;;;;;;8.17;7.47;;;22.20;99.90;;;;;;5051842;28;20424;-34
2022/07/21 11:06:09;;;;;;;9.23;7.60;;;22.20;99.90;;;;;;5052092;28;20448;-34
2022/07/21 11:08:34;;;;;;;8.40;7.50;;;22.20;99.90;;;;;;5051640;28;20420;-34
2022/07/21 11:11:15;;;;;;;11.80;8.70;;;22.20;99.90;;;;;;5052353;28;20474;-34
2022/07/21 11:13:59;;;;;;;9.30;8.30;;;22.10;99.90;;;;;;5058426;28;20186;-34
2022/07/21 11:16:43;;;;;;;9.97;8.80;;;21.80;99.90;;;;;;5031991;28;20845;-34
2022/07/21 11:19:46;;;;;;;11.70;8.73;;;21.70;99.90;;;;;;5038784;28;20424;-34
2022/07/21 11:22:25;;;;;;;10.13;8.63;;;21.70;99.90;;;;;;5032214;28;20523;-34
2022/07/21 11:24:55;;;;;;;10.43;9.33;;;21.50;99.90;;;;;;5031818;28;20468;-34
2022/07/21 11:27:23;;;;;;;10.00;9.10;;;21.50;99.90;;;;;;5031382;28;20420;-33
2022/07/21 11:29:55;;;;;;;10.47;9.57;;;21.40;99.90;;;;;;5032072;28;20424;-34
2022/07/21 11:32:21;;;;;;;10.97;9.50;;;21.30;99.90;;;;;;5031828;28;20437;-33
2022/07/21 11:34:55;;;;;;;11.73;9.80;;;21.10;99.90;;;;;;5031940;28;20444;-33
2022/07/21 11:37:33;;;;;;;9.87;8.90;;;21.10;99.90;;;;;;5030882;28;20425;-34
2022/07/21 11:39:59;;;;;;;9.70;8.70;;;21.30;99.90;;;;;;5032066;28;20425;-33
2022/07/21 11:42:26;;;;;;;12.90;9.83;;;21.20;99.90;;;;;;5031749;28;20572;-33
2022/07/21 11:44:52;;;;;;;10.83;9.87;;;21.10;99.90;;;;;;5031723;28;20946;-34
2022/07/21 11:47:20;;;;;;;12.13;10.70;;;21.10;99.90;;;;;;5030997;28;20469;-34
2022/07/21 11:49:46;;;;;;;9.37;8.47;;;21.10;99.90;;;;;;5031250;28;20460;-34
2022/07/21 11:52:17;;;;;;;10.70;9.60;;;21.10;99.90;;;;;;5031503;28;20826;-34
2022/07/21 11:54:51;;;;;;;10.00;9.10;;;21.20;99.90;;;;;;5036875;28;20444;-34
2022/07/21 11:57:19;;;;;;;10.47;9.53;;;21.00;99.90;;;;;;5050658;28;20454;-33
2022/07/21 11:59:46;;;;;;;9.27;8.37;;;21.10;99.90;;;;;;5051553;28;20432;-34
2022/07/21 12:02:16;;;;;;;12.87;9.60;;;21.00;99.90;;;;;;5051070;28;20428;-34
2022/07/21 12:04:45;;;;;;;10.60;9.60;;;21.10;99.90;;;;;;5051006;28;20467;-34
2022/07/21 12:07:19;;;;;;;10.33;9.43;;;21.00;99.90;;;;;;5050440;28;20439;-34
2022/07/21 12:09:48;;;;;;;11.23;9.30;;;20.70;99.90;;;;;;5051252;28;20455;-34
2022/07/21 12:12:14;;;;;;;10.47;9.57;;;20.70;99.90;;;;;;5050837;28;20420;-34
2022/07/21 12:14:41;;;;;;;11.03;9.97;;;20.70;99.90;;;;;;5054960;28;20432;-34
2022/07/21 12:17:07;;;;;;;11.00;10.00;;;20.70;99.90;;;;;;5032495;28;21081;-34
2022/07/21 12:19:33;;;;;;;10.53;9.43;;;20.70;99.90;;;;;;5029539;28;20425;-33
2022/07/21 12:21:59;;;;;;;11.30;10.20;;;20.70;99.90;;;;;;5035452;28;20424;-34
2022/07/21 12:24:55;;;;;;;11.17;9.30;;;20.70;99.90;;;;;;5050801;28;20811;-34
2022/07/21 12:27:22;;;;;;;10.73;9.63;;;20.70;99.90;;;;;;5049967;28;20181;-34
2022/07/21 12:29:48;;;;;;;10.07;9.10;;;20.70;99.90;;;;;;5050570;28;20918;-34
2022/07/21 12:32:35;;;;;;;8.87;8.17;;;20.70;99.90;;;;;;5050752;28;20750;-34
2022/07/21 12:35:01;;;;;;;9.77;8.87;;;20.60;99.90;;;;;;5050566;28;20432;-34
2022/07/21 12:38:03;;;;;;;9.40;8.53;;;20.70;99.90;;;;;;5050005;28;20431;-34
2022/07/21 12:40:31;;;;;;;9.13;8.27;;;20.70;99.90;;;;;;5050594;28;20185;-34
2022/07/21 12:43:03;;;;;;;7.70;7.10;;;20.80;99.90;;;;;;5050574;28;20424;-34
2022/07/21 12:45:29;;;;;;;8.63;7.77;;;20.80;99.90;;;;;;5050593;28;20455;-34